sensor_id;sensor_type;location;lat;lon;timestamp;pressure;altitude;pressure_sealevel;temperature;humidity
78094;BME280;67327;37.152;-76.406;2023-03-14T00:01:13;100964.15;;;39.80;9.42
78094;BME280;67327;37.152;-76.406;2023-03-14T00:03:37;100965.76;;;39.81;9.43
78094;BME280;67327;37.152;-76.406;2023-03-14T00:06:02;100972.71;;;39.59;9.45
78094;BME280;67327;37.152;-76.406;2023-03-14T00:08:26;100972.00;;;39.59;9.44
78094;BME280;67327;37.152;-76.406;2023-03-14T00:10:51;100974.87;;;39.82;9.46
78094;BME280;67327;37.152;-76.406;2023-03-14T00:13:16;100977.97;;;39.82;9.48
78094;BME280;67327;37.152;-76.406;2023-03-14T00:15:41;100980.91;;;39.84;9.49
78094;BME280;67327;37.152;-76.406;2023-03-14T00:18:07;100984.27;;;39.86;9.49
78094;BME280;67327;37.152;-76.406;2023-03-14T00:20:31;100982.99;;;39.87;9.48
78094;BME280;67327;37.152;-76.406;2023-03-14T00:22:56;100981.90;;;39.90;9.47
78094;BME280;67327;37.152;-76.406;2023-03-14T00:25:22;100979.11;;;39.90;9.48
78094;BME280;67327;37.152;-76.406;2023-03-14T00:27:47;100980.76;;;39.85;9.50
78094;BME280;67327;37.152;-76.406;2023-03-14T00:30:16;100985.85;;;39.84;9.49
78094;BME280;67327;37.152;-76.406;2023-03-14T00:32:37;100983.95;;;39.60;9.49
78094;BME280;67327;37.152;-76.406;2023-03-14T00:35:02;100984.65;;;40.08;9.49
78094;BME280;67327;37.152;-76.406;2023-03-14T00:37:27;100988.07;;;39.84;9.49
78094;BME280;67327;37.152;-76.406;2023-03-14T00:39:52;100989.64;;;40.07;9.48
78094;BME280;67327;37.152;-76.406;2023-03-14T00:42:17;100982.77;;;39.82;9.48
78094;BME280;67327;37.152;-76.406;2023-03-14T00:44:42;100978.69;;;39.83;9.47
78094;BME280;67327;37.152;-76.406;2023-03-14T00:47:08;100978.66;;;39.58;9.48
78094;BME280;67327;37.152;-76.406;2023-03-14T00:49:33;100979.02;;;39.81;9.47
78094;BME280;67327;37.152;-76.406;2023-03-14T00:51:58;100982.26;;;39.81;9.47
78094;BME280;67327;37.152;-76.406;2023-03-14T00:54:23;100988.47;;;40.05;9.45
78094;BME280;67327;37.152;-76.406;2023-03-14T00:56:48;100994.50;;;39.80;9.47
78094;BME280;67327;37.152;-76.406;2023-03-14T00:59:13;100996.93;;;39.55;9.47
78094;BME280;67327;37.152;-76.406;2023-03-14T01:01:39;100995.31;;;39.78;9.47
78094;BME280;67327;37.152;-76.406;2023-03-14T01:04:05;100997.82;;;39.99;9.50
78094;BME280;67327;37.152;-76.406;2023-03-14T01:06:29;100997.48;;;39.98;9.49
78094;BME280;67327;37.152;-76.406;2023-03-14T01:08:55;100990.37;;;39.71;9.50
78094;BME280;67327;37.152;-76.406;2023-03-14T01:11:20;100989.21;;;39.49;9.50
78094;BME280;67327;37.152;-76.406;2023-03-14T01:13:44;100988.35;;;39.69;9.51
78094;BME280;67327;37.152;-76.406;2023-03-14T01:16:11;100991.11;;;39.89;9.55
78094;BME280;67327;37.152;-76.406;2023-03-14T01:18:34;100989.95;;;39.86;9.56
78094;BME280;67327;37.152;-76.406;2023-03-14T01:20:59;100984.94;;;39.62;9.58
78094;BME280;67327;37.152;-76.406;2023-03-14T01:23:24;100987.76;;;39.87;9.56
78094;BME280;67327;37.152;-76.406;2023-03-14T01:25:49;100985.92;;;39.86;9.57
78094;BME280;67327;37.152;-76.406;2023-03-14T01:28:15;100991.47;;;39.62;9.59
78094;BME280;67327;37.152;-76.406;2023-03-14T01:30:39;100991.53;;;39.84;9.59
78094;BME280;67327;37.152;-76.406;2023-03-14T01:33:05;100995.00;;;39.81;9.60
78094;BME280;67327;37.152;-76.406;2023-03-14T01:35:30;100996.06;;;39.77;9.62
78094;BME280;67327;37.152;-76.406;2023-03-14T01:37:55;101003.24;;;39.51;9.62
78094;BME280;67327;37.152;-76.406;2023-03-14T01:40:20;101010.11;;;39.75;9.63
78094;BME280;67327;37.152;-76.406;2023-03-14T01:42:46;101013.29;;;39.75;9.64
78094;BME280;67327;37.152;-76.406;2023-03-14T01:47:35;101009.47;;;39.75;9.64
78094;BME280;67327;37.152;-76.406;2023-03-14T01:50:04;101007.95;;;39.72;9.66
78094;BME280;67327;37.152;-76.406;2023-03-14T01:52:30;101005.70;;;39.44;9.66
78094;BME280;67327;37.152;-76.406;2023-03-14T01:54:53;101009.09;;;39.19;9.67
78094;BME280;67327;37.152;-76.406;2023-03-14T01:57:19;101012.83;;;39.65;9.68
78094;BME280;67327;37.152;-76.406;2023-03-14T01:59:46;101016.76;;;39.63;9.68
78094;BME280;67327;37.152;-76.406;2023-03-14T02:02:09;101019.47;;;39.39;9.69
78094;BME280;67327;37.152;-76.406;2023-03-14T02:04:33;101018.54;;;39.61;9.69
78094;BME280;67327;37.152;-76.406;2023-03-14T02:07:01;101019.42;;;39.35;9.70
78094;BME280;67327;37.152;-76.406;2023-03-14T02:09:22;101020.73;;;39.34;9.69
78094;BME280;67327;37.152;-76.406;2023-03-14T02:11:47;101023.86;;;39.60;9.67
78094;BME280;67327;37.152;-76.406;2023-03-14T02:14:19;101034.14;;;39.64;9.67
78094;BME280;67327;37.152;-76.406;2023-03-14T02:16:37;101033.46;;;39.65;9.65
78094;BME280;67327;37.152;-76.406;2023-03-14T02:19:03;101038.21;;;39.39;9.65
78094;BME280;67327;37.152;-76.406;2023-03-14T02:21:37;101040.89;;;39.64;9.66
78094;BME280;67327;37.152;-76.406;2023-03-14T02:24:00;101040.03;;;39.67;9.65
78094;BME280;67327;37.152;-76.406;2023-03-14T02:26:22;101040.32;;;39.45;9.63
78094;BME280;67327;37.152;-76.406;2023-03-14T02:28:43;101037.35;;;39.71;9.62
78094;BME280;67327;37.152;-76.406;2023-03-14T02:31:09;101032.74;;;39.50;9.61
78094;BME280;67327;37.152;-76.406;2023-03-14T02:33:33;101030.26;;;39.50;9.59
78094;BME280;67327;37.152;-76.406;2023-03-14T02:36:00;101033.69;;;39.73;9.59
78094;BME280;67327;37.152;-76.406;2023-03-14T02:38:29;101033.40;;;39.75;9.56
78094;BME280;67327;37.152;-76.406;2023-03-14T02:40:48;101035.62;;;39.73;9.54
78094;BME280;67327;37.152;-76.406;2023-03-14T02:43:14;101037.69;;;39.48;9.57
78094;BME280;67327;37.152;-76.406;2023-03-14T02:45:42;101038.73;;;39.70;9.56
78094;BME280;67327;37.152;-76.406;2023-03-14T02:48:07;101043.08;;;39.65;9.56
78094;BME280;67327;37.152;-76.406;2023-03-14T02:50:31;101064.41;;;39.63;9.58
78094;BME280;67327;37.152;-76.406;2023-03-14T02:52:54;101069.44;;;39.59;9.58
78094;BME280;67327;37.152;-76.406;2023-03-14T02:55:21;101056.75;;;39.29;9.60
78094;BME280;67327;37.152;-76.406;2023-03-14T02:57:44;101050.71;;;39.51;9.59
78094;BME280;67327;37.152;-76.406;2023-03-14T03:00:11;101048.79;;;39.48;9.59
78094;BME280;67327;37.152;-76.406;2023-03-14T03:02:34;101051.37;;;39.47;9.58
78094;BME280;67327;37.152;-76.406;2023-03-14T03:05:00;101056.41;;;39.44;9.59
78094;BME280;67327;37.152;-76.406;2023-03-14T03:07:25;101054.39;;;39.41;9.59
78094;BME280;67327;37.152;-76.406;2023-03-14T03:09:50;101051.01;;;39.39;9.59
78094;BME280;67327;37.152;-76.406;2023-03-14T03:12:15;101050.97;;;39.35;9.59
78094;BME280;67327;37.152;-76.406;2023-03-14T03:14:40;101056.64;;;39.33;9.57
78094;BME280;67327;37.152;-76.406;2023-03-14T03:17:05;101057.79;;;39.32;9.58
78094;BME280;67327;37.152;-76.406;2023-03-14T03:19:31;101057.61;;;39.34;9.56
78094;BME280;67327;37.152;-76.406;2023-03-14T03:21:56;101058.82;;;39.33;9.54
78094;BME280;67327;37.152;-76.406;2023-03-14T03:24:21;101058.77;;;39.35;9.52
78094;BME280;67327;37.152;-76.406;2023-03-14T03:26:46;101056.88;;;39.36;9.50
78094;BME280;67327;37.152;-76.406;2023-03-14T03:29:11;101058.08;;;39.37;9.48
78094;BME280;67327;37.152;-76.406;2023-03-14T03:31:37;101058.76;;;39.36;9.46
78094;BME280;67327;37.152;-76.406;2023-03-14T03:34:02;101059.60;;;39.11;9.48
78094;BME280;67327;37.152;-76.406;2023-03-14T03:36:27;101059.14;;;39.34;9.47
78094;BME280;67327;37.152;-76.406;2023-03-14T03:38:52;101058.62;;;39.32;9.43
78094;BME280;67327;37.152;-76.406;2023-03-14T03:41:17;101060.69;;;39.31;9.42
78094;BME280;67327;37.152;-76.406;2023-03-14T03:43:42;101057.42;;;39.30;9.42
78094;BME280;67327;37.152;-76.406;2023-03-14T03:46:07;101054.39;;;39.26;9.44
78094;BME280;67327;37.152;-76.406;2023-03-14T03:48:33;101056.71;;;39.19;9.45
78094;BME280;67327;37.152;-76.406;2023-03-14T03:50:57;101059.97;;;39.13;9.46
78094;BME280;67327;37.152;-76.406;2023-03-14T03:53:23;101058.82;;;39.09;9.48
78094;BME280;67327;37.152;-76.406;2023-03-14T03:55:48;101060.99;;;39.07;9.49
78094;BME280;67327;37.152;-76.406;2023-03-14T03:58:12;101061.36;;;39.08;9.47
78094;BME280;67327;37.152;-76.406;2023-03-14T04:00:38;101063.52;;;39.07;9.47
78094;BME280;67327;37.152;-76.406;2023-03-14T04:03:03;101065.65;;;38.80;9.47
78094;BME280;67327;37.152;-76.406;2023-03-14T04:05:28;101062.95;;;39.26;9.47
78094;BME280;67327;37.152;-76.406;2023-03-14T04:07:53;101068.77;;;39.00;9.49
78094;BME280;67327;37.152;-76.406;2023-03-14T04:10:18;101069.13;;;38.99;9.48
78094;BME280;67327;37.152;-76.406;2023-03-14T04:12:44;101073.38;;;39.20;9.47
78094;BME280;67327;37.152;-76.406;2023-03-14T04:15:09;101076.40;;;38.95;9.48
78094;BME280;67327;37.152;-76.406;2023-03-14T04:17:34;101084.75;;;38.92;9.48
78094;BME280;67327;37.152;-76.406;2023-03-14T04:19:59;101085.30;;;38.91;9.48
78094;BME280;67327;37.152;-76.406;2023-03-14T04:22:24;101083.56;;;38.88;9.48
78094;BME280;67327;37.152;-76.406;2023-03-14T04:24:49;101085.14;;;38.84;9.49
78094;BME280;67327;37.152;-76.406;2023-03-14T04:27:14;101081.08;;;38.80;9.48
78094;BME280;67327;37.152;-76.406;2023-03-14T04:29:39;101083.24;;;38.79;9.48
78094;BME280;67327;37.152;-76.406;2023-03-14T04:32:05;101077.36;;;38.77;9.48
78094;BME280;67327;37.152;-76.406;2023-03-14T04:34:29;101076.41;;;38.76;9.47
78094;BME280;67327;37.152;-76.406;2023-03-14T04:36:54;101075.21;;;38.49;9.49
78094;BME280;67327;37.152;-76.406;2023-03-14T04:39:20;101072.43;;;38.70;9.48
78094;BME280;67327;37.152;-76.406;2023-03-14T04:41:45;101071.23;;;38.67;9.48
78094;BME280;67327;37.152;-76.406;2023-03-14T04:44:10;101075.72;;;38.89;9.50
78094;BME280;67327;37.152;-76.406;2023-03-14T04:46:35;101077.29;;;38.56;9.52
78094;BME280;67327;37.152;-76.406;2023-03-14T04:49:00;101076.27;;;39.00;9.53
78094;BME280;67327;37.152;-76.406;2023-03-14T04:51:25;101074.73;;;38.68;9.54
78094;BME280;67327;37.152;-76.406;2023-03-14T04:53:51;101078.44;;;38.86;9.56
78094;BME280;67327;37.152;-76.406;2023-03-14T04:56:16;101078.55;;;38.60;9.58
78094;BME280;67327;37.152;-76.406;2023-03-14T04:58:41;101078.33;;;38.37;9.57
78094;BME280;67327;37.152;-76.406;2023-03-14T05:01:06;101080.20;;;38.62;9.55
78094;BME280;67327;37.152;-76.406;2023-03-14T05:03:31;101085.45;;;38.61;9.56
78094;BME280;67327;37.152;-76.406;2023-03-14T05:05:57;101091.31;;;38.85;9.56
78094;BME280;67327;37.152;-76.406;2023-03-14T05:08:21;101092.08;;;38.89;9.54
78094;BME280;67327;37.152;-76.406;2023-03-14T05:10:52;101093.59;;;38.45;9.52
78094;BME280;67327;37.152;-76.406;2023-03-14T05:13:11;101098.81;;;38.71;9.51
78094;BME280;67327;37.152;-76.406;2023-03-14T05:15:37;101101.25;;;38.95;9.50
78094;BME280;67327;37.152;-76.406;2023-03-14T05:18:02;101101.96;;;38.52;9.48
78094;BME280;67327;37.152;-76.406;2023-03-14T05:20:27;101096.66;;;38.78;9.46
78094;BME280;67327;37.152;-76.406;2023-03-14T05:22:52;101091.36;;;38.53;9.47
78094;BME280;67327;37.152;-76.406;2023-03-14T05:25:17;101090.33;;;38.55;9.45
78094;BME280;67327;37.152;-76.406;2023-03-14T05:27:42;101094.69;;;38.78;9.45
78094;BME280;67327;37.152;-76.406;2023-03-14T05:30:09;101098.92;;;38.49;9.45
78094;BME280;67327;37.152;-76.406;2023-03-14T05:32:33;101100.75;;;38.68;9.48
78094;BME280;67327;37.152;-76.406;2023-03-14T05:34:58;101104.35;;;38.66;9.48
78094;BME280;67327;37.152;-76.406;2023-03-14T05:37:23;101103.82;;;38.66;9.48
78094;BME280;67327;37.152;-76.406;2023-03-14T05:39:48;101106.07;;;38.66;9.48
78094;BME280;67327;37.152;-76.406;2023-03-14T05:42:13;101110.80;;;38.37;9.49
78094;BME280;67327;37.152;-76.406;2023-03-14T05:44:38;101116.16;;;38.59;9.47
78094;BME280;67327;37.152;-76.406;2023-03-14T05:47:03;101116.30;;;38.57;9.48
78094;BME280;67327;37.152;-76.406;2023-03-14T05:49:28;101119.34;;;38.32;9.48
78094;BME280;67327;37.152;-76.406;2023-03-14T05:51:53;101123.45;;;38.57;9.46
78094;BME280;67327;37.152;-76.406;2023-03-14T05:54:18;101126.04;;;38.55;9.45
78094;BME280;67327;37.152;-76.406;2023-03-14T05:56:44;101127.38;;;38.51;9.45
78094;BME280;67327;37.152;-76.406;2023-03-14T05:59:09;101124.50;;;38.25;9.42
78094;BME280;67327;37.152;-76.406;2023-03-14T06:01:34;101128.04;;;38.49;9.45
78094;BME280;67327;37.152;-76.406;2023-03-14T06:03:59;101132.91;;;38.23;9.44
78094;BME280;67327;37.152;-76.406;2023-03-14T06:06:24;101134.22;;;38.48;9.41
78094;BME280;67327;37.152;-76.406;2023-03-14T06:08:49;101134.87;;;38.23;9.42
78094;BME280;67327;37.152;-76.406;2023-03-14T06:11:14;101140.07;;;38.22;9.43
78094;BME280;67327;37.152;-76.406;2023-03-14T06:13:40;101139.84;;;38.23;9.40
78094;BME280;67327;37.152;-76.406;2023-03-14T06:16:06;101141.20;;;38.25;9.40
78094;BME280;67327;37.152;-76.406;2023-03-14T06:18:30;101143.60;;;38.50;9.37
78094;BME280;67327;37.152;-76.406;2023-03-14T06:20:55;101142.38;;;38.26;9.34
78094;BME280;67327;37.152;-76.406;2023-03-14T06:23:20;101144.43;;;38.23;9.38
78094;BME280;67327;37.152;-76.406;2023-03-14T06:25:45;101146.46;;;38.70;9.38
78094;BME280;67327;37.152;-76.406;2023-03-14T06:28:11;101146.35;;;38.62;9.40
78094;BME280;67327;37.152;-76.406;2023-03-14T06:30:36;101152.71;;;38.32;9.43
78094;BME280;67327;37.152;-76.406;2023-03-14T06:33:01;101156.04;;;38.30;9.43
78094;BME280;67327;37.152;-76.406;2023-03-14T06:35:26;101157.59;;;38.26;9.45
78094;BME280;67327;37.152;-76.406;2023-03-14T06:37:51;101157.19;;;38.24;9.45
78094;BME280;67327;37.152;-76.406;2023-03-14T06:40:17;101159.25;;;38.45;9.45
78094;BME280;67327;37.152;-76.406;2023-03-14T06:42:41;101162.43;;;38.19;9.44
78094;BME280;67327;37.152;-76.406;2023-03-14T06:45:08;101166.04;;;38.14;9.45
78094;BME280;67327;37.152;-76.406;2023-03-14T06:47:32;101160.19;;;38.37;9.44
78094;BME280;67327;37.152;-76.406;2023-03-14T06:49:57;101161.07;;;38.36;9.44
78094;BME280;67327;37.152;-76.406;2023-03-14T06:52:22;101165.07;;;38.35;9.44
78094;BME280;67327;37.152;-76.406;2023-03-14T06:54:47;101169.72;;;38.14;9.41
78094;BME280;67327;37.152;-76.406;2023-03-14T06:57:12;101168.74;;;38.36;9.38
78094;BME280;67327;37.152;-76.406;2023-03-14T06:59:38;101177.94;;;38.11;9.41
78094;BME280;67327;37.152;-76.406;2023-03-14T07:02:03;101181.55;;;38.33;9.40
78094;BME280;67327;37.152;-76.406;2023-03-14T07:04:28;101183.11;;;38.08;9.38
78094;BME280;67327;37.152;-76.406;2023-03-14T07:06:53;101181.93;;;38.04;9.39
78094;BME280;67327;37.152;-76.406;2023-03-14T07:09:18;101184.64;;;38.03;9.38
78094;BME280;67327;37.152;-76.406;2023-03-14T07:11:43;101188.28;;;38.29;9.37
78094;BME280;67327;37.152;-76.406;2023-03-14T07:14:08;101187.33;;;38.06;9.36
78094;BME280;67327;37.152;-76.406;2023-03-14T07:16:33;101184.59;;;38.06;9.35
78094;BME280;67327;37.152;-76.406;2023-03-14T07:18:59;101185.69;;;38.05;9.32
78094;BME280;67327;37.152;-76.406;2023-03-14T07:21:29;101185.01;;;38.01;9.34
78094;BME280;67327;37.152;-76.406;2023-03-14T07:23:49;101193.34;;;38.23;9.34
78094;BME280;67327;37.152;-76.406;2023-03-14T07:26:14;101190.49;;;38.02;9.31
78094;BME280;67327;37.152;-76.406;2023-03-14T07:28:39;101190.13;;;38.48;9.26
78094;BME280;67327;37.152;-76.406;2023-03-14T07:31:04;101188.50;;;37.98;9.27
78094;BME280;67327;37.152;-76.406;2023-03-14T07:33:29;101185.67;;;37.97;9.27
78094;BME280;67327;37.152;-76.406;2023-03-14T07:35:54;101188.11;;;38.43;9.27
78094;BME280;67327;37.152;-76.406;2023-03-14T07:38:19;101189.37;;;38.13;9.28
78094;BME280;67327;37.152;-76.406;2023-03-14T07:40:44;101184.47;;;38.09;9.28
78094;BME280;67327;37.152;-76.406;2023-03-14T07:43:09;101182.27;;;38.05;9.31
78094;BME280;67327;37.152;-76.406;2023-03-14T07:45:34;101183.02;;;38.00;9.33
78094;BME280;67327;37.152;-76.406;2023-03-14T07:48:00;101179.63;;;37.49;9.33
78094;BME280;67327;37.152;-76.406;2023-03-14T07:50:25;101179.24;;;37.97;9.29
78094;BME280;67327;37.152;-76.406;2023-03-14T07:52:50;101180.24;;;38.16;9.29
78094;BME280;67327;37.152;-76.406;2023-03-14T07:55:15;101183.89;;;38.09;9.29
78094;BME280;67327;37.152;-76.406;2023-03-14T07:57:40;101188.79;;;38.06;9.30
78094;BME280;67327;37.152;-76.406;2023-03-14T08:00:07;101188.34;;;37.78;9.29
78094;BME280;67327;37.152;-76.406;2023-03-14T08:02:30;101188.39;;;37.80;9.29
78094;BME280;67327;37.152;-76.406;2023-03-14T08:04:56;101187.64;;;37.82;9.26
78094;BME280;67327;37.152;-76.406;2023-03-14T08:07:21;101187.96;;;37.56;9.27
78094;BME280;67327;37.152;-76.406;2023-03-14T08:09:46;101183.98;;;38.07;9.25
78094;BME280;67327;37.152;-76.406;2023-03-14T08:12:11;101186.23;;;37.60;9.25
78094;BME280;67327;37.152;-76.406;2023-03-14T08:14:36;101186.63;;;37.86;9.24
78094;BME280;67327;37.152;-76.406;2023-03-14T08:17:01;101187.53;;;37.64;9.21
78094;BME280;67327;37.152;-76.406;2023-03-14T08:19:26;101184.51;;;37.89;9.20
78094;BME280;67327;37.152;-76.406;2023-03-14T08:21:51;101187.89;;;37.86;9.18
78094;BME280;67327;37.152;-76.406;2023-03-14T08:24:17;101186.60;;;37.86;9.18
78094;BME280;67327;37.152;-76.406;2023-03-14T08:26:42;101186.16;;;37.87;9.16
78094;BME280;67327;37.152;-76.406;2023-03-14T08:29:07;101183.56;;;37.64;9.15
78094;BME280;67327;37.152;-76.406;2023-03-14T08:31:32;101188.52;;;37.86;9.14
78094;BME280;67327;37.152;-76.406;2023-03-14T08:33:59;101186.95;;;37.83;9.16
78094;BME280;67327;37.152;-76.406;2023-03-14T08:36:23;101184.95;;;37.79;9.16
78094;BME280;67327;37.152;-76.406;2023-03-14T08:38:48;101183.01;;;37.78;9.13
78094;BME280;67327;37.152;-76.406;2023-03-14T08:41:13;101178.43;;;37.78;9.11
78094;BME280;67327;37.152;-76.406;2023-03-14T08:43:38;101188.75;;;37.79;9.12
78094;BME280;67327;37.152;-76.406;2023-03-14T08:46:04;101189.50;;;37.97;9.14
78094;BME280;67327;37.152;-76.406;2023-03-14T08:48:29;101185.58;;;37.67;9.14
78094;BME280;67327;37.152;-76.406;2023-03-14T08:50:53;101191.01;;;37.61;9.13
78094;BME280;67327;37.152;-76.406;2023-03-14T08:53:18;101189.83;;;37.81;9.16
78094;BME280;67327;37.152;-76.406;2023-03-14T08:55:43;101190.75;;;37.78;9.15
78094;BME280;67327;37.152;-76.406;2023-03-14T08:58:09;101191.74;;;37.77;9.15
78094;BME280;67327;37.152;-76.406;2023-03-14T09:00:34;101193.38;;;37.76;9.12
78094;BME280;67327;37.152;-76.406;2023-03-14T09:02:59;101197.27;;;37.74;9.13
78094;BME280;67327;37.152;-76.406;2023-03-14T09:05:24;101198.29;;;38.01;9.10
78094;BME280;67327;37.152;-76.406;2023-03-14T09:07:49;101199.29;;;37.78;9.10
78094;BME280;67327;37.152;-76.406;2023-03-14T09:10:14;101205.61;;;37.55;9.11
78094;BME280;67327;37.152;-76.406;2023-03-14T09:12:40;101208.68;;;37.81;9.11
78094;BME280;67327;37.152;-76.406;2023-03-14T09:15:05;101213.02;;;37.82;9.08
78094;BME280;67327;37.152;-76.406;2023-03-14T09:17:30;101216.73;;;37.57;9.06
78094;BME280;67327;37.152;-76.406;2023-03-14T09:19:55;101217.72;;;37.55;9.00
78094;BME280;67327;37.152;-76.406;2023-03-14T09:22:20;101221.31;;;37.78;8.97
78094;BME280;67327;37.152;-76.406;2023-03-14T09:24:45;101219.63;;;37.51;8.97
78094;BME280;67327;37.152;-76.406;2023-03-14T09:27:10;101218.38;;;37.72;8.95
78094;BME280;67327;37.152;-76.406;2023-03-14T09:29:36;101225.15;;;37.69;8.94
78094;BME280;67327;37.152;-76.406;2023-03-14T09:32:01;101226.11;;;37.66;8.95
78094;BME280;67327;37.152;-76.406;2023-03-14T09:34:26;101227.37;;;37.64;8.96
78094;BME280;67327;37.152;-76.406;2023-03-14T09:36:51;101229.46;;;37.60;8.95
78094;BME280;67327;37.152;-76.406;2023-03-14T09:39:16;101233.95;;;37.60;8.93
78094;BME280;67327;37.152;-76.406;2023-03-14T09:41:44;101237.72;;;37.36;8.92
78094;BME280;67327;37.152;-76.406;2023-03-14T09:44:09;101235.14;;;37.59;8.92
78094;BME280;67327;37.152;-76.406;2023-03-14T09:46:33;101240.24;;;37.36;8.88
78094;BME280;67327;37.152;-76.406;2023-03-14T09:48:56;101242.32;;;37.37;8.88
78094;BME280;67327;37.152;-76.406;2023-03-14T09:51:21;101242.71;;;37.87;8.86
78094;BME280;67327;37.152;-76.406;2023-03-14T09:53:48;101241.50;;;37.64;8.84
78094;BME280;67327;37.152;-76.406;2023-03-14T09:56:13;101240.75;;;37.87;8.78
78094;BME280;67327;37.152;-76.406;2023-03-14T09:58:37;101236.19;;;37.40;8.73
78094;BME280;67327;37.152;-76.406;2023-03-14T10:01:02;101242.17;;;37.64;8.70
78094;BME280;67327;37.152;-76.406;2023-03-14T10:03:31;101244.24;;;37.37;8.71
78094;BME280;67327;37.152;-76.406;2023-03-14T10:05:53;101248.41;;;37.60;8.68
78094;BME280;67327;37.152;-76.406;2023-03-14T10:08:17;101247.58;;;37.55;8.67
78094;BME280;67327;37.152;-76.406;2023-03-14T10:10:42;101255.49;;;37.51;8.68
78094;BME280;67327;37.152;-76.406;2023-03-14T10:13:15;101255.87;;;37.50;8.65
78094;BME280;67327;37.152;-76.406;2023-03-14T10:15:34;101251.95;;;37.52;8.65
78094;BME280;67327;37.152;-76.406;2023-03-14T10:18:00;101255.64;;;37.53;8.63
78094;BME280;67327;37.152;-76.406;2023-03-14T10:20:30;101257.14;;;37.56;8.66
78094;BME280;67327;37.152;-76.406;2023-03-14T10:22:51;101259.95;;;37.35;8.62
78094;BME280;67327;37.152;-76.406;2023-03-14T10:25:25;101259.87;;;37.37;8.60
78094;BME280;67327;37.152;-76.406;2023-03-14T10:27:38;101263.79;;;37.67;8.61
78094;BME280;67327;37.152;-76.406;2023-03-14T10:30:06;101267.36;;;37.69;8.63
78094;BME280;67327;37.152;-76.406;2023-03-14T10:32:33;101271.00;;;37.43;8.61
78094;BME280;67327;37.152;-76.406;2023-03-14T10:35:05;101269.31;;;37.48;8.61
78094;BME280;67327;37.152;-76.406;2023-03-14T10:37:23;101272.51;;;37.63;8.60
78094;BME280;67327;37.152;-76.406;2023-03-14T10:39:47;101270.97;;;37.73;8.56
78094;BME280;67327;37.152;-76.406;2023-03-14T10:42:18;101269.25;;;37.78;8.55
78094;BME280;67327;37.152;-76.406;2023-03-14T10:44:35;101273.83;;;37.84;8.53
78094;BME280;67327;37.152;-76.406;2023-03-14T10:47:01;101275.91;;;37.65;8.54
78094;BME280;67327;37.152;-76.406;2023-03-14T10:49:28;101272.31;;;37.96;8.54
78094;BME280;67327;37.152;-76.406;2023-03-14T10:51:50;101272.31;;;38.26;8.53
78094;BME280;67327;37.152;-76.406;2023-03-14T10:54:20;101275.13;;;38.08;8.52
78094;BME280;67327;37.152;-76.406;2023-03-14T10:56:40;101280.52;;;38.13;8.52
78094;BME280;67327;37.152;-76.406;2023-03-14T10:59:11;101286.91;;;38.18;8.47
78094;BME280;67327;37.152;-76.406;2023-03-14T11:01:38;101292.06;;;38.00;8.46
78094;BME280;67327;37.152;-76.406;2023-03-14T11:03:59;101296.24;;;38.34;8.43
78094;BME280;67327;37.152;-76.406;2023-03-14T11:06:25;101298.72;;;38.21;8.38
78094;BME280;67327;37.152;-76.406;2023-03-14T11:08:50;101300.46;;;38.55;8.36
78094;BME280;67327;37.152;-76.406;2023-03-14T11:11:15;101304.67;;;38.36;8.38
78094;BME280;67327;37.152;-76.406;2023-03-14T11:13:40;101313.07;;;38.62;8.37
78094;BME280;67327;37.152;-76.406;2023-03-14T11:16:06;101311.85;;;38.41;8.38
78094;BME280;67327;37.152;-76.406;2023-03-14T11:20:57;101323.98;;;38.34;8.41
78094;BME280;67327;37.152;-76.406;2023-03-14T11:23:20;101325.63;;;38.89;8.39
78094;BME280;67327;37.152;-76.406;2023-03-14T11:25:47;101321.00;;;38.67;8.40
78094;BME280;67327;37.152;-76.406;2023-03-14T11:28:14;101328.60;;;38.49;8.41
78094;BME280;67327;37.152;-76.406;2023-03-14T11:30:37;101322.29;;;38.79;8.43
78094;BME280;67327;37.152;-76.406;2023-03-14T11:33:02;101324.43;;;38.63;8.41
78094;BME280;67327;37.152;-76.406;2023-03-14T11:35:26;101329.84;;;38.69;8.40
78094;BME280;67327;37.152;-76.406;2023-03-14T11:37:52;101331.43;;;38.72;8.40
78094;BME280;67327;37.152;-76.406;2023-03-14T11:40:16;101330.94;;;38.75;8.39
78094;BME280;67327;37.152;-76.406;2023-03-14T11:42:39;101332.65;;;38.80;8.36
78094;BME280;67327;37.152;-76.406;2023-03-14T11:45:04;101338.74;;;38.81;8.39
78094;BME280;67327;37.152;-76.406;2023-03-14T11:47:31;101337.28;;;38.84;8.42
78094;BME280;67327;37.152;-76.406;2023-03-14T11:49:56;101343.01;;;38.89;8.38
78094;BME280;67327;37.152;-76.406;2023-03-14T11:52:22;101340.25;;;38.95;8.37
78094;BME280;67327;37.152;-76.406;2023-03-14T11:54:46;101338.97;;;39.01;8.35
78094;BME280;67327;37.152;-76.406;2023-03-14T11:57:11;101345.97;;;39.05;8.37
78094;BME280;67327;37.152;-76.406;2023-03-14T11:59:41;101347.60;;;39.11;8.34
78094;BME280;67327;37.152;-76.406;2023-03-14T12:02:02;101349.66;;;39.17;8.30
78094;BME280;67327;37.152;-76.406;2023-03-14T12:04:35;101348.67;;;39.20;8.31
78094;BME280;67327;37.152;-76.406;2023-03-14T12:06:50;101351.13;;;39.25;8.35
78094;BME280;67327;37.152;-76.406;2023-03-14T12:09:15;101354.03;;;39.26;8.40
78094;BME280;67327;37.152;-76.406;2023-03-14T12:11:43;101356.86;;;39.25;8.43
78094;BME280;67327;37.152;-76.406;2023-03-14T12:14:18;101360.64;;;39.24;8.47
78094;BME280;67327;37.152;-76.406;2023-03-14T12:16:37;101358.61;;;39.23;8.48
78094;BME280;67327;37.152;-76.406;2023-03-14T12:18:54;101364.86;;;38.99;8.50
78094;BME280;67327;37.152;-76.406;2023-03-14T12:21:20;101365.08;;;39.22;8.53
78094;BME280;67327;37.152;-76.406;2023-03-14T12:23:48;101368.98;;;39.19;8.57
78094;BME280;67327;37.152;-76.406;2023-03-14T12:26:17;101372.16;;;38.94;8.59
78094;BME280;67327;37.152;-76.406;2023-03-14T12:28:35;101373.24;;;39.18;8.60
78094;BME280;67327;37.152;-76.406;2023-03-14T12:33:28;101376.51;;;38.93;8.69
78094;BME280;67327;37.152;-76.406;2023-03-14T12:35:51;101370.30;;;39.15;8.71